createdAt,value
2018-01-24T00:00:08.646Z,1013.98
2018-01-24T00:01:08.600Z,1013.94
2018-01-24T00:02:08.564Z,1013.97
2018-01-24T00:03:08.529Z,1013.94
2018-01-24T00:04:08.518Z,1014.00
2018-01-24T00:05:08.449Z,1013.97
2018-01-24T00:06:08.410Z,1014.03
2018-01-24T00:07:08.374Z,1013.96
2018-01-24T00:08:08.366Z,1013.92
2018-01-24T00:09:08.307Z,1013.92
2018-01-24T00:10:08.293Z,1013.93
2018-01-24T00:11:08.232Z,1013.87
2018-01-24T00:12:08.182Z,1013.88
2018-01-24T00:13:08.154Z,1013.77
2018-01-24T00:14:08.106Z,1013.82
2018-01-24T00:15:08.074Z,1013.83
2018-01-24T00:16:08.065Z,1013.82
2018-01-24T00:17:07.998Z,1013.84
2018-01-24T00:18:07.958Z,1013.81
2018-01-24T00:19:07.927Z,1013.86
2018-01-24T00:20:07.879Z,1013.83
2018-01-24T00:21:07.848Z,1013.81
2018-01-24T00:22:07.840Z,1013.80
2018-01-24T00:23:07.785Z,1013.84
2018-01-24T00:24:07.725Z,1013.80
2018-01-24T00:25:07.688Z,1013.83
2018-01-24T00:26:07.702Z,1013.78
2018-01-24T00:27:07.622Z,1013.84
2018-01-24T00:28:07.616Z,1013.77
2018-01-24T00:29:07.546Z,1013.83
2018-01-24T00:30:07.513Z,1013.79
2018-01-24T00:31:07.463Z,1013.82
2018-01-24T00:32:07.430Z,1013.70
2018-01-24T00:33:07.394Z,1013.79
2018-01-24T00:34:07.383Z,1013.73
2018-01-24T00:35:07.312Z,1013.71
2018-01-24T00:36:07.276Z,1013.75
2018-01-24T00:37:07.247Z,1013.71
2018-01-24T00:38:07.199Z,1013.66
2018-01-24T00:39:07.198Z,1013.68
2018-01-24T00:40:07.126Z,1013.62
2018-01-24T00:41:07.085Z,1013.64
2018-01-24T00:42:07.046Z,1013.65
2018-01-24T00:43:07.014Z,1013.65
2018-01-24T00:44:06.978Z,1013.55
2018-01-24T00:45:06.957Z,1013.59
2018-01-24T00:46:06.894Z,1013.53
2018-01-24T00:47:06.861Z,1013.61
2018-01-24T00:48:06.827Z,1013.59
2018-01-24T00:49:06.787Z,1013.58
2018-01-24T00:50:06.748Z,1013.56
2018-01-24T00:51:06.738Z,1013.54
2018-01-24T00:52:06.671Z,1013.57
2018-01-24T00:53:06.633Z,1013.55
2018-01-24T00:54:06.594Z,1013.60
2018-01-24T00:55:06.563Z,1013.54
2018-01-24T00:56:06.547Z,1013.58
2018-01-24T00:57:06.484Z,1013.56
2018-01-24T00:58:06.442Z,1013.54
2018-01-24T00:59:06.415Z,1013.61
2018-01-24T01:00:06.365Z,1013.66
2018-01-24T01:01:06.335Z,1013.61
2018-01-24T01:02:06.322Z,1013.64
2018-01-24T01:03:06.255Z,1013.60
2018-01-24T01:04:06.216Z,1013.62
2018-01-24T01:05:17.311Z,1013.62
2018-01-24T01:06:06.150Z,1013.61
2018-01-24T01:07:06.129Z,1013.57
2018-01-24T01:08:06.065Z,1013.53
2018-01-24T01:09:06.039Z,1013.49
2018-01-24T01:10:05.994Z,1013.55
2018-01-24T01:11:05.953Z,1013.53
2018-01-24T01:12:05.936Z,1013.48
2018-01-24T01:13:05.881Z,1013.54
2018-01-24T01:14:05.844Z,1013.48
2018-01-24T01:15:05.803Z,1013.51
2018-01-24T01:16:05.766Z,1013.51
2018-01-24T01:17:05.732Z,1013.48
2018-01-24T01:18:05.710Z,1013.43
2018-01-24T01:19:05.650Z,1013.45
2018-01-24T01:20:05.612Z,1013.43
2018-01-24T01:21:05.578Z,1013.43
2018-01-24T01:22:05.546Z,1013.43
2018-01-24T01:23:05.540Z,1013.52
2018-01-24T01:24:05.491Z,1013.47
2018-01-24T01:25:05.427Z,1013.47
2018-01-24T01:26:15.844Z,1013.47
2018-01-24T01:27:05.346Z,1013.47
2018-01-24T01:28:05.316Z,1013.46
2018-01-24T01:29:05.303Z,1013.47
2018-01-24T01:30:05.238Z,1013.43
2018-01-24T01:31:05.196Z,1013.43
2018-01-24T01:32:05.161Z,1013.37
2018-01-24T01:33:05.122Z,1013.46
2018-01-24T01:34:05.090Z,1013.44
2018-01-24T01:35:05.082Z,1013.42
2018-01-24T01:36:05.020Z,1013.43
2018-01-24T01:37:04.979Z,1013.43
2018-01-24T01:38:04.935Z,1013.42
2018-01-24T01:39:04.898Z,1013.41
2018-01-24T01:40:04.865Z,1013.36
2018-01-24T01:41:04.852Z,1013.36
2018-01-24T01:42:04.793Z,1013.35
2018-01-24T01:43:04.753Z,1013.37
2018-01-24T01:44:04.719Z,1013.37
2018-01-24T01:45:04.677Z,1013.35
2018-01-24T01:46:04.643Z,1013.35
2018-01-24T01:47:04.624Z,1013.33
2018-01-24T01:48:04.571Z,1013.30
2018-01-24T01:49:04.534Z,1013.28
2018-01-24T01:50:04.492Z,1013.31
2018-01-24T01:51:04.451Z,1013.29
2018-01-24T01:52:04.410Z,1013.35
2018-01-24T01:53:04.398Z,1013.32
2018-01-24T01:54:04.346Z,1013.37
2018-01-24T01:55:04.305Z,1013.34
2018-01-24T01:56:04.260Z,1013.39
2018-01-24T01:57:04.229Z,1013.39
2018-01-24T01:58:04.215Z,1013.39
2018-01-24T01:59:04.156Z,1013.36
2018-01-24T02:00:04.117Z,1013.40
2018-01-24T02:01:04.078Z,1013.42
2018-01-24T02:02:04.045Z,1013.39
2018-01-24T02:03:04.027Z,1013.38
2018-01-24T02:04:03.966Z,1013.36
2018-01-24T02:05:03.923Z,1013.35
2018-01-24T02:06:03.890Z,1013.31
2018-01-24T02:07:03.847Z,1013.29
2018-01-24T02:08:03.821Z,1013.31
2018-01-24T02:09:03.797Z,1013.32
2018-01-24T02:10:03.767Z,1013.33
2018-01-24T02:11:03.707Z,1013.31
2018-01-24T02:12:03.668Z,1013.33
2018-01-24T02:13:03.623Z,1013.38
2018-01-24T02:14:03.616Z,1013.32
2018-01-24T02:15:03.549Z,1013.36
2018-01-24T02:16:03.518Z,1013.34
2018-01-24T02:17:03.473Z,1013.26
2018-01-24T02:18:03.440Z,1013.27
2018-01-24T02:19:03.421Z,1013.27
2018-01-24T02:20:03.362Z,1013.32
2018-01-24T02:21:03.326Z,1013.32
2018-01-24T02:22:03.291Z,1013.32
2018-01-24T02:23:03.244Z,1013.31
2018-01-24T02:24:03.242Z,1013.22
2018-01-24T02:25:03.182Z,1013.26
2018-01-24T02:26:03.134Z,1013.26
2018-01-24T02:27:03.098Z,1013.24
2018-01-24T02:28:03.059Z,1013.23
2018-01-24T02:29:03.051Z,1013.22
2018-01-24T02:30:02.987Z,1013.22
2018-01-24T02:31:02.958Z,1013.21
2018-01-24T02:32:02.919Z,1013.21
2018-01-24T02:33:02.879Z,1013.16
2018-01-24T02:34:02.836Z,1013.20
2018-01-24T02:35:02.829Z,1013.19
2018-01-24T02:36:02.758Z,1013.21
2018-01-24T02:37:02.731Z,1013.25
2018-01-24T02:38:02.682Z,1013.27
2018-01-24T02:39:02.655Z,1013.17
2018-01-24T02:40:02.642Z,1013.14
2018-01-24T02:41:02.579Z,1013.06
2018-01-24T02:42:02.545Z,1013.11
2018-01-24T02:43:02.500Z,1013.16
2018-01-24T02:44:02.459Z,1013.11
2018-01-24T02:45:02.426Z,1013.10
2018-01-24T02:46:02.455Z,1013.12
2018-01-24T02:47:02.351Z,1013.15
2018-01-24T02:48:02.312Z,1013.13
2018-01-24T02:49:02.274Z,1013.14
2018-01-24T02:50:02.230Z,1013.10
2018-01-24T02:51:02.199Z,1013.09
2018-01-24T02:52:02.191Z,1013.07
2018-01-24T02:53:02.118Z,1013.12
2018-01-24T02:54:02.086Z,1013.08
2018-01-24T02:55:02.048Z,1013.06
2018-01-24T02:56:02.012Z,1013.07
2018-01-24T02:57:01.979Z,1013.10
2018-01-24T02:58:01.958Z,1013.07
2018-01-24T02:59:01.889Z,1013.07
2018-01-24T03:00:01.861Z,1013.04
2018-01-24T03:01:01.825Z,1013.05
2018-01-24T03:02:01.789Z,1013.08
2018-01-24T03:03:01.777Z,1013.08
2018-01-24T03:04:01.704Z,1013.05
2018-01-24T03:05:01.669Z,1013.02
2018-01-24T03:06:01.638Z,1013.06
2018-01-24T03:07:01.583Z,1013.07
2018-01-24T03:08:01.552Z,1013.01
2018-01-24T03:09:01.541Z,1013.07
2018-01-24T03:10:01.482Z,1013.03
2018-01-24T03:11:01.439Z,1013.05
2018-01-24T03:12:01.404Z,1013.07
2018-01-24T03:13:01.402Z,1013.02
2018-01-24T03:14:01.350Z,1013.06
2018-01-24T03:15:01.296Z,1013.01
2018-01-24T03:16:01.260Z,1012.98
2018-01-24T03:17:01.226Z,1013.01
2018-01-24T03:18:01.172Z,1013.00
2018-01-24T03:19:01.148Z,1013.04
2018-01-24T03:20:01.127Z,1013.02
2018-01-24T03:21:01.065Z,1013.03
2018-01-24T03:22:01.038Z,1013.07
2018-01-24T03:23:00.992Z,1013.01
2018-01-24T03:24:00.959Z,1013.02
2018-01-24T03:25:00.949Z,1013.01
2018-01-24T03:26:00.871Z,1013.00
2018-01-24T03:27:00.835Z,1013.04
2018-01-24T03:28:00.798Z,1012.98
2018-01-24T03:29:00.760Z,1012.99
2018-01-24T03:30:00.722Z,1012.98
2018-01-24T03:31:00.706Z,1012.99
2018-01-24T03:32:00.654Z,1012.95
2018-01-24T03:33:00.612Z,1012.99
2018-01-24T03:34:00.575Z,1012.97
2018-01-24T03:35:00.538Z,1013.00
2018-01-24T03:36:00.530Z,1012.96
2018-01-24T03:37:00.459Z,1012.95
2018-01-24T03:38:00.418Z,1012.95
2018-01-24T03:39:00.388Z,1012.96
2018-01-24T03:40:00.356Z,1012.94
2018-01-24T03:41:00.307Z,1012.94
2018-01-24T03:42:00.292Z,1012.91
2018-01-24T03:43:00.241Z,1012.92
2018-01-24T03:44:00.206Z,1012.92
2018-01-24T03:45:00.157Z,1012.92
2018-01-24T03:46:00.136Z,1012.93
2018-01-24T03:47:00.110Z,1012.90
2018-01-24T03:48:00.048Z,1012.91
2018-01-24T03:49:00.012Z,1012.91
2018-01-24T03:49:59.975Z,1012.91
2018-01-24T03:50:59.934Z,1012.89
2018-01-24T03:51:59.891Z,1012.90
2018-01-24T03:52:59.891Z,1012.91
2018-01-24T03:53:59.825Z,1012.85
2018-01-24T03:54:59.796Z,1012.88
2018-01-24T03:55:59.741Z,1012.89
2018-01-24T03:56:59.703Z,1012.88
2018-01-24T03:57:59.667Z,1012.84
2018-01-24T03:58:59.655Z,1012.86
2018-01-24T03:59:59.598Z,1012.81
2018-01-24T04:00:59.561Z,1012.83
2018-01-24T04:01:59.518Z,1012.84
2018-01-24T04:02:59.484Z,1012.82
2018-01-24T04:03:59.467Z,1012.81
2018-01-24T04:04:59.430Z,1012.79
2018-01-24T04:05:59.366Z,1012.77
2018-01-24T04:06:59.333Z,1012.79
2018-01-24T04:07:59.287Z,1012.79
2018-01-24T04:08:59.278Z,1012.79
2018-01-24T04:09:59.220Z,1012.77
2018-01-24T04:10:59.208Z,1012.77
2018-01-24T04:11:59.139Z,1012.78
2018-01-24T04:12:59.106Z,1012.74
2018-01-24T04:13:59.073Z,1012.78
2018-01-24T04:14:59.061Z,1012.74
2018-01-24T04:15:58.988Z,1012.78
2018-01-24T04:16:58.959Z,1012.79
2018-01-24T04:17:58.913Z,1012.74
2018-01-24T04:18:58.880Z,1012.78
2018-01-24T04:19:58.838Z,1012.76
2018-01-24T04:20:58.835Z,1012.81
2018-01-24T04:21:58.764Z,1012.75
2018-01-24T04:22:58.732Z,1012.77
2018-01-24T04:23:58.690Z,1012.75
2018-01-24T04:24:58.659Z,1012.76
2018-01-24T04:25:58.620Z,1012.80
2018-01-24T04:26:58.607Z,1012.75
2018-01-24T04:27:58.561Z,1012.77
2018-01-24T04:28:58.508Z,1012.74
2018-01-24T04:29:58.466Z,1012.76
2018-01-24T04:30:58.425Z,1012.72
2018-01-24T04:31:58.423Z,1012.73
2018-01-24T04:32:58.351Z,1012.74
2018-01-24T04:33:58.319Z,1012.71
2018-01-24T04:34:58.274Z,1012.70
2018-01-24T04:35:58.244Z,1012.73
2018-01-24T04:36:58.241Z,1012.68
2018-01-24T04:37:58.168Z,1012.69
2018-01-24T04:38:58.125Z,1012.70
2018-01-24T04:39:58.093Z,1012.66
2018-01-24T04:40:58.049Z,1012.69
2018-01-24T04:41:58.012Z,1012.67
2018-01-24T04:42:58.003Z,1012.64
2018-01-24T04:43:57.945Z,1012.65
2018-01-24T04:44:57.899Z,1012.62
2018-01-24T04:45:57.868Z,1012.66
2018-01-24T04:46:57.832Z,1012.66
2018-01-24T04:47:57.790Z,1012.68
2018-01-24T04:48:57.778Z,1012.61
2018-01-24T04:49:57.765Z,1012.65
2018-01-24T04:50:57.678Z,1012.62
2018-01-24T04:51:57.650Z,1012.60
2018-01-24T04:52:57.610Z,1012.61
2018-01-24T04:53:57.579Z,1012.62
2018-01-24T04:54:57.608Z,1012.62
2018-01-24T04:55:57.498Z,1012.58
2018-01-24T04:56:57.451Z,1012.61
2018-01-24T04:57:57.417Z,1012.64
2018-01-24T04:58:57.381Z,1012.62
2018-01-24T04:59:57.351Z,1012.61
2018-01-24T05:00:57.335Z,1012.64
2018-01-24T05:01:57.269Z,1012.60
2018-01-24T05:02:57.232Z,1012.58
2018-01-24T05:03:57.186Z,1012.63
2018-01-24T05:04:57.152Z,1012.60
2018-01-24T05:05:57.126Z,1012.62
2018-01-24T05:06:57.108Z,1012.57
2018-01-24T05:07:57.046Z,1012.55
2018-01-24T05:08:57.005Z,1012.56
2018-01-24T05:09:56.965Z,1012.56
2018-01-24T05:10:56.927Z,1012.54
2018-01-24T05:11:56.915Z,1012.55
2018-01-24T05:12:56.858Z,1012.54
2018-01-24T05:13:56.813Z,1012.55
2018-01-24T05:14:56.785Z,1012.59
2018-01-24T05:15:56.744Z,1012.58
2018-01-24T05:16:56.713Z,1012.57
2018-01-24T05:17:56.698Z,1012.52
2018-01-24T05:18:56.632Z,1012.55
2018-01-24T05:19:56.596Z,1012.52
2018-01-24T05:20:56.560Z,1012.51
2018-01-24T05:21:56.523Z,1012.50
2018-01-24T05:22:56.486Z,1012.53
2018-01-24T05:23:56.469Z,1012.47
2018-01-24T05:24:56.406Z,1012.46
2018-01-24T05:25:56.367Z,1012.47
2018-01-24T05:26:56.329Z,1012.51
2018-01-24T05:27:56.300Z,1012.56
2018-01-24T05:28:56.285Z,1012.56
2018-01-24T05:29:56.226Z,1012.51
2018-01-24T05:30:56.181Z,1012.50
2018-01-24T05:31:56.144Z,1012.52
2018-01-24T05:32:56.106Z,1012.54
2018-01-24T05:33:56.076Z,1012.51
2018-01-24T05:34:56.061Z,1012.53
2018-01-24T05:35:56.003Z,1012.49
2018-01-24T05:36:55.966Z,1012.53
2018-01-24T05:37:55.925Z,1012.53
2018-01-24T05:38:55.885Z,1012.49
2018-01-24T05:39:55.852Z,1012.48
2018-01-24T05:40:55.835Z,1012.48
2018-01-24T05:41:55.768Z,1012.50
2018-01-24T05:42:55.739Z,1012.49
2018-01-24T05:43:55.695Z,1012.48
2018-01-24T05:44:55.655Z,1012.51
2018-01-24T05:45:55.627Z,1012.48
2018-01-24T05:46:55.610Z,1012.43
2018-01-24T05:47:55.554Z,1012.42
2018-01-24T05:48:55.511Z,1012.34
2018-01-24T05:49:55.476Z,1012.36
2018-01-24T05:50:55.429Z,1012.33
2018-01-24T05:51:55.406Z,1012.33
2018-01-24T05:52:55.385Z,1012.33
2018-01-24T05:53:55.318Z,1012.31
2018-01-24T05:54:55.290Z,1012.33
2018-01-24T05:55:55.255Z,1012.34
2018-01-24T05:56:55.211Z,1012.31
2018-01-24T05:57:55.177Z,1012.34
2018-01-24T05:58:55.171Z,1012.33
2018-01-24T05:59:55.109Z,1012.35
2018-01-24T06:00:55.062Z,1012.36
2018-01-24T06:01:55.027Z,1012.39
2018-01-24T06:02:54.983Z,1012.40
2018-01-24T06:03:54.953Z,1012.39
2018-01-24T06:04:54.948Z,1012.39
2018-01-24T06:05:54.880Z,1012.35
2018-01-24T06:06:54.844Z,1012.38
2018-01-24T06:07:54.798Z,1012.37
2018-01-24T06:08:54.760Z,1012.35
2018-01-24T06:09:54.731Z,1012.34
2018-01-24T06:10:54.711Z,1012.34
2018-01-24T06:11:54.656Z,1012.33
2018-01-24T06:12:54.617Z,1012.31
2018-01-24T06:13:54.585Z,1012.31
2018-01-24T06:14:54.540Z,1012.31
2018-01-24T06:15:54.534Z,1012.33
2018-01-24T06:16:54.465Z,1012.33
2018-01-24T06:17:54.434Z,1012.33
2018-01-24T06:18:54.393Z,1012.33
2018-01-24T06:19:54.356Z,1012.28
2018-01-24T06:20:54.328Z,1012.30
2018-01-24T06:21:54.306Z,1012.34
2018-01-24T06:22:54.240Z,1012.35
2018-01-24T06:23:54.203Z,1012.32
2018-01-24T06:24:54.167Z,1012.33
2018-01-24T06:25:54.127Z,1012.32
2018-01-24T06:26:54.121Z,1012.36
2018-01-24T06:27:54.061Z,1012.34
2018-01-24T06:28:54.017Z,1012.31
2018-01-24T06:29:53.982Z,1012.37
2018-01-24T06:30:53.946Z,1012.32
2018-01-24T06:31:53.910Z,1012.33
2018-01-24T06:32:53.892Z,1012.31
2018-01-24T06:33:53.843Z,1012.33
2018-01-24T06:34:53.798Z,1012.30
2018-01-24T06:35:53.754Z,1012.24
2018-01-24T06:36:53.720Z,1012.31
2018-01-24T06:37:53.680Z,1012.28
2018-01-24T06:38:53.670Z,1012.29
2018-01-24T06:39:53.608Z,1012.31
2018-01-24T06:40:53.572Z,1012.34
2018-01-24T06:41:53.537Z,1012.28
2018-01-24T06:42:53.496Z,1012.33
2018-01-24T06:43:53.459Z,1012.28
2018-01-24T06:44:53.454Z,1012.29
2018-01-24T06:45:53.381Z,1012.33
2018-01-24T06:46:53.346Z,1012.32
2018-01-24T06:47:53.315Z,1012.28
2018-01-24T06:48:53.276Z,1012.36
2018-01-24T06:49:53.275Z,1012.37
2018-01-24T06:50:53.204Z,1012.36
2018-01-24T06:51:53.165Z,1012.37
2018-01-24T06:52:53.129Z,1012.37
2018-01-24T06:53:53.081Z,1012.39
2018-01-24T06:54:53.075Z,1012.39
2018-01-24T06:55:53.008Z,1012.37
2018-01-24T06:56:52.972Z,1012.40
2018-01-24T06:57:52.940Z,1012.38
2018-01-24T06:58:52.900Z,1012.34
2018-01-24T06:59:52.866Z,1012.44
2018-01-24T07:00:52.847Z,1012.46
2018-01-24T07:01:52.797Z,1012.42
2018-01-24T07:02:52.747Z,1012.37
2018-01-24T07:03:52.720Z,1012.39
2018-01-24T07:04:52.677Z,1012.37
2018-01-24T07:05:52.643Z,1012.37
2018-01-24T07:06:52.632Z,1012.36
2018-01-24T07:07:52.571Z,1012.39
2018-01-24T07:08:52.531Z,1012.38
2018-01-24T07:09:52.490Z,1012.35
2018-01-24T07:10:52.450Z,1012.39
2018-01-24T07:11:52.410Z,1012.37
2018-01-24T07:12:52.405Z,1012.43
2018-01-24T07:13:52.336Z,1012.36
2018-01-24T07:14:52.308Z,1012.39
2018-01-24T07:15:52.268Z,1012.39
2018-01-24T07:16:52.231Z,1012.34
2018-01-24T07:17:52.213Z,1012.39
2018-01-24T07:18:52.153Z,1012.39
2018-01-24T07:19:52.112Z,1012.34
2018-01-24T07:20:52.077Z,1012.34
2018-01-24T07:21:52.036Z,1012.32
2018-01-24T07:22:52.008Z,1012.30
2018-01-24T07:23:51.998Z,1012.31
2018-01-24T07:24:51.935Z,1012.34
2018-01-24T07:25:51.900Z,1012.31
2018-01-24T07:26:51.860Z,1012.32
2018-01-24T07:27:51.813Z,1012.33
2018-01-24T07:28:51.792Z,1012.31
2018-01-24T07:29:51.775Z,1012.36
2018-01-24T07:30:51.716Z,1012.33
2018-01-24T07:31:51.671Z,1012.37
2018-01-24T07:32:51.628Z,1012.39
2018-01-24T07:33:51.592Z,1012.40
2018-01-24T07:34:51.561Z,1012.39
2018-01-24T07:35:51.551Z,1012.37
2018-01-24T07:36:51.482Z,1012.34
2018-01-24T07:37:51.447Z,1012.32
2018-01-24T07:38:51.410Z,1012.33
2018-01-24T07:39:51.372Z,1012.34
2018-01-24T07:40:51.329Z,1012.34
2018-01-24T07:41:51.328Z,1012.30
2018-01-24T07:42:51.259Z,1012.29
2018-01-24T07:43:51.238Z,1012.32
2018-01-24T07:44:51.188Z,1012.34
2018-01-24T07:45:51.150Z,1012.30
2018-01-24T07:46:51.108Z,1012.26
2018-01-24T07:47:51.109Z,1012.28
2018-01-24T07:48:51.077Z,1012.28
2018-01-24T07:49:50.999Z,1012.28
2018-01-24T07:50:50.962Z,1012.33
2018-01-24T07:51:50.926Z,1012.32
2018-01-24T07:52:50.887Z,1012.26
2018-01-24T07:53:50.882Z,1012.23
2018-01-24T07:54:50.812Z,1012.25
2018-01-24T07:55:50.778Z,1012.25
2018-01-24T07:56:50.731Z,1012.27
2018-01-24T07:57:50.705Z,1012.23
2018-01-24T07:58:50.672Z,1012.20
2018-01-24T07:59:50.660Z,1012.15
2018-01-24T08:00:50.595Z,1012.13
2018-01-24T08:01:50.553Z,1012.15
2018-01-24T08:02:50.509Z,1012.20
2018-01-24T08:03:50.490Z,1012.16
2018-01-24T08:04:50.437Z,1012.24
2018-01-24T08:05:50.441Z,1012.17
2018-01-24T08:06:50.367Z,1012.22
2018-01-24T08:07:50.345Z,1012.22
2018-01-24T08:08:50.313Z,1012.17
2018-01-24T08:09:50.261Z,1012.14
2018-01-24T08:10:50.226Z,1012.13
2018-01-24T08:11:50.230Z,1012.14
2018-01-24T08:12:50.150Z,1012.15
2018-01-24T08:13:50.111Z,1012.11
2018-01-24T08:14:50.071Z,1012.10
2018-01-24T08:15:50.031Z,1012.13
2018-01-24T08:16:49.996Z,1012.10
2018-01-24T08:17:49.981Z,1012.06
2018-01-24T08:18:49.915Z,1012.04
2018-01-24T08:19:49.888Z,1012.06
2018-01-24T08:20:49.858Z,1012.05
2018-01-24T08:21:49.811Z,1012.02
2018-01-24T08:22:49.778Z,1012.02
2018-01-24T08:23:49.759Z,1011.97
2018-01-24T08:24:49.708Z,1012.01
2018-01-24T08:25:49.661Z,1011.98
2018-01-24T08:26:49.624Z,1011.95
2018-01-24T08:27:49.630Z,1011.91
2018-01-24T08:28:49.570Z,1011.85
2018-01-24T08:29:49.572Z,1011.89
2018-01-24T08:30:50.344Z,1011.90
2018-01-24T08:31:49.431Z,1011.97
2018-01-24T08:32:49.403Z,1011.93
2018-01-24T08:33:49.372Z,1011.93
2018-01-24T08:34:49.339Z,1011.88
2018-01-24T08:35:49.328Z,1011.86
2018-01-24T08:36:49.251Z,1011.81
2018-01-24T08:37:49.213Z,1011.85
2018-01-24T08:38:49.187Z,1011.87
2018-01-24T08:39:49.215Z,1011.85
2018-01-24T08:40:49.100Z,1011.84
2018-01-24T08:41:49.099Z,1011.88
2018-01-24T08:42:49.024Z,1011.91
2018-01-24T08:43:49.021Z,1011.90
2018-01-24T08:44:48.955Z,1011.89
2018-01-24T08:45:48.973Z,1011.87
2018-01-24T08:46:48.879Z,1011.89
2018-01-24T08:47:48.874Z,1011.88
2018-01-24T08:48:48.813Z,1011.85
2018-01-24T08:49:48.765Z,1011.88
2018-01-24T08:50:48.733Z,1011.90
2018-01-24T08:51:48.701Z,1011.86
2018-01-24T08:52:48.666Z,1011.88
2018-01-24T08:53:48.653Z,1011.83
2018-01-24T08:54:48.589Z,1011.85
2018-01-24T08:55:48.546Z,1011.81
2018-01-24T08:56:48.506Z,1011.84
2018-01-24T08:57:48.484Z,1011.78
2018-01-24T08:58:48.443Z,1011.84
2018-01-24T08:59:48.433Z,1011.80
2018-01-24T09:00:48.361Z,1011.82
2018-01-24T09:01:48.324Z,1011.79
2018-01-24T09:02:48.297Z,1011.83
2018-01-24T09:03:48.259Z,1011.82
2018-01-24T09:04:48.215Z,1011.74
2018-01-24T09:05:48.282Z,1011.81
2018-01-24T09:06:48.143Z,1011.71
2018-01-24T09:07:48.110Z,1011.78
2018-01-24T09:08:48.084Z,1011.79
2018-01-24T09:09:48.041Z,1011.80
2018-01-24T09:10:48.077Z,1011.78
2018-01-24T09:11:47.960Z,1011.79
2018-01-24T09:12:47.929Z,1011.76
2018-01-24T09:13:47.890Z,1011.77
2018-01-24T09:14:47.853Z,1011.76
2018-01-24T09:15:47.836Z,1011.76
2018-01-24T09:16:47.776Z,1011.78
2018-01-24T09:17:47.738Z,1011.73
2018-01-24T09:18:47.700Z,1011.73
2018-01-24T09:19:47.679Z,1011.68
2018-01-24T09:20:47.663Z,1011.65
2018-01-24T09:21:47.598Z,1011.65
2018-01-24T09:22:47.580Z,1011.68
2018-01-24T09:23:47.526Z,1011.62
2018-01-24T09:24:47.488Z,1011.69
2018-01-24T09:25:47.454Z,1011.70
2018-01-24T09:26:47.451Z,1011.61
2018-01-24T09:27:47.384Z,1011.64
2018-01-24T09:28:47.341Z,1011.61
2018-01-24T09:29:47.318Z,1011.55
2018-01-24T09:30:47.289Z,1011.56
2018-01-24T09:31:47.293Z,1011.55
2018-01-24T09:32:47.246Z,1011.53
2018-01-24T09:33:47.169Z,1011.50
2018-01-24T09:34:47.143Z,1011.51
2018-01-24T09:35:47.106Z,1011.47
2018-01-24T09:36:47.064Z,1011.46
2018-01-24T09:37:47.023Z,1011.42
2018-01-24T09:38:47.009Z,1011.41
2018-01-24T09:39:46.942Z,1011.41
2018-01-24T09:40:46.922Z,1011.43
2018-01-24T09:41:46.877Z,1011.50
2018-01-24T09:42:46.839Z,1011.40
2018-01-24T09:43:46.802Z,1011.35
2018-01-24T09:44:46.793Z,1011.46
2018-01-24T09:45:46.725Z,1011.40
2018-01-24T09:46:46.694Z,1011.41
2018-01-24T09:47:46.664Z,1011.40
2018-01-24T09:48:46.624Z,1011.41
2018-01-24T09:49:46.610Z,1011.50
2018-01-24T09:50:46.550Z,1011.45
2018-01-24T09:51:46.508Z,1011.48
2018-01-24T09:52:46.486Z,1011.45
2018-01-24T09:53:46.440Z,1011.52
2018-01-24T09:54:46.446Z,1011.42
2018-01-24T09:55:46.372Z,1011.43
2018-01-24T09:56:46.340Z,1011.35
2018-01-24T09:57:46.308Z,1011.37
2018-01-24T09:58:46.271Z,1011.27
2018-01-24T09:59:46.227Z,1011.31
2018-01-24T10:00:46.221Z,1011.30
2018-01-24T10:01:46.162Z,1011.30
2018-01-24T10:02:46.135Z,1011.26
2018-01-24T10:03:46.088Z,1011.29
2018-01-24T10:04:46.055Z,1011.30
2018-01-24T10:05:46.015Z,1011.28
2018-01-24T10:06:46.004Z,1011.23
2018-01-24T10:07:45.937Z,1011.22
2018-01-24T10:08:45.906Z,1011.20
2018-01-24T10:09:45.874Z,1011.19
2018-01-24T10:10:45.837Z,1011.19
2018-01-24T10:11:45.793Z,1011.11
2018-01-24T10:12:45.792Z,1011.11
2018-01-24T10:13:45.725Z,1011.07
2018-01-24T10:14:45.681Z,1011.01
2018-01-24T10:15:45.652Z,1011.10
2018-01-24T10:16:45.623Z,1011.12
2018-01-24T10:17:45.601Z,1011.07
2018-01-24T10:18:45.545Z,1011.08
2018-01-24T10:19:45.507Z,1011.10
2018-01-24T10:20:45.472Z,1011.06
2018-01-24T10:21:45.428Z,1011.04
2018-01-24T10:22:45.400Z,1011.03
2018-01-24T10:23:45.385Z,1011.07
2018-01-24T10:24:45.336Z,1010.95
2018-01-24T10:25:45.302Z,1011.07
2018-01-24T10:26:45.252Z,1011.00
2018-01-24T10:27:45.227Z,1011.00
2018-01-24T10:28:45.204Z,1010.98
2018-01-24T10:29:45.142Z,1010.99
2018-01-24T10:30:45.110Z,1010.98
2018-01-24T10:31:45.073Z,1010.98
2018-01-24T10:32:45.060Z,1010.94
2018-01-24T10:33:45.056Z,1010.86
2018-01-24T10:34:44.984Z,1010.82
2018-01-24T10:35:44.937Z,1010.87
2018-01-24T10:36:44.903Z,1010.86
2018-01-24T10:37:44.849Z,1010.89
2018-01-24T10:38:44.820Z,1010.90
2018-01-24T10:39:44.805Z,1010.82
2018-01-24T10:40:44.754Z,1010.78
2018-01-24T10:41:44.712Z,1010.83
2018-01-24T10:42:44.680Z,1010.73
2018-01-24T10:43:44.637Z,1010.76
2018-01-24T10:44:44.668Z,1010.77
2018-01-24T10:45:44.598Z,1010.74
2018-01-24T10:46:44.538Z,1010.74
2018-01-24T10:47:44.516Z,1010.71
2018-01-24T10:48:44.462Z,1010.75
2018-01-24T10:49:44.417Z,1010.71
2018-01-24T10:50:44.387Z,1010.62
2018-01-24T10:51:44.399Z,1010.69
2018-01-24T10:52:44.373Z,1010.62
2018-01-24T10:53:44.274Z,1010.67
2018-01-24T10:54:44.241Z,1010.58
2018-01-24T10:55:44.202Z,1010.55
2018-01-24T10:56:44.172Z,1010.52
2018-01-24T10:57:44.164Z,1010.53
2018-01-24T10:58:44.119Z,1010.49
2018-01-24T10:59:44.072Z,1010.49
2018-01-24T11:00:44.077Z,1010.46
2018-01-24T11:01:43.986Z,1010.46
2018-01-24T11:02:43.950Z,1010.41
2018-01-24T11:03:43.942Z,1010.44
2018-01-24T11:04:43.884Z,1010.41
2018-01-24T11:05:43.849Z,1010.39
2018-01-24T11:06:43.813Z,1010.37
2018-01-24T11:07:43.777Z,1010.42
2018-01-24T11:08:43.766Z,1010.40
2018-01-24T11:09:43.703Z,1010.24
2018-01-24T11:10:43.671Z,1010.34
2018-01-24T11:11:43.636Z,1010.31
2018-01-24T11:12:43.592Z,1010.27
2018-01-24T11:13:43.555Z,1010.23
2018-01-24T11:14:43.554Z,1010.24
2018-01-24T11:15:43.495Z,1010.29
2018-01-24T11:16:43.461Z,1010.20
2018-01-24T11:17:43.413Z,1010.19
2018-01-24T11:18:43.388Z,1010.15
2018-01-24T11:19:43.342Z,1010.20
2018-01-24T11:20:43.348Z,1010.17
2018-01-24T11:21:43.273Z,1010.14
2018-01-24T11:22:43.238Z,1010.19
2018-01-24T11:23:43.200Z,1010.15
2018-01-24T11:24:43.174Z,1010.12
2018-01-24T11:25:43.140Z,1010.16
2018-01-24T11:26:43.128Z,1010.11
2018-01-24T11:27:43.060Z,1010.10
2018-01-24T11:28:43.032Z,1010.09
2018-01-24T11:29:42.994Z,1010.04
2018-01-24T11:30:42.963Z,1010.04
2018-01-24T11:31:42.922Z,1010.04
2018-01-24T11:32:42.906Z,1010.06
2018-01-24T11:33:42.853Z,1009.96
2018-01-24T11:34:42.830Z,1010.01
2018-01-24T11:35:42.784Z,1009.95
2018-01-24T11:36:42.745Z,1009.95
2018-01-24T11:37:42.707Z,1009.96
2018-01-24T11:38:42.703Z,1009.91
2018-01-24T11:39:42.639Z,1009.96
2018-01-24T11:40:42.601Z,1009.93
2018-01-24T11:41:42.563Z,1009.86
2018-01-24T11:42:42.547Z,1009.85
2018-01-24T11:43:42.525Z,1009.90
2018-01-24T11:44:42.458Z,1009.83
2018-01-24T11:45:42.446Z,1009.81
2018-01-24T11:46:42.388Z,1009.82
2018-01-24T11:47:42.355Z,1009.81
2018-01-24T11:48:42.318Z,1009.76
2018-01-24T11:49:42.312Z,1009.77
2018-01-24T11:50:42.252Z,1009.72
2018-01-24T11:51:42.207Z,1009.72
2018-01-24T11:52:42.172Z,1009.73
2018-01-24T11:53:42.143Z,1009.65
2018-01-24T11:54:42.126Z,1009.64
2018-01-24T11:55:42.089Z,1009.72
2018-01-24T11:56:42.036Z,1009.65
2018-01-24T11:57:42.003Z,1009.62
2018-01-24T11:58:41.969Z,1009.63
2018-01-24T11:59:41.934Z,1009.63
2018-01-24T12:00:41.915Z,1009.62
2018-01-24T12:01:41.860Z,1009.65
2018-01-24T12:02:41.827Z,1009.59
2018-01-24T12:03:41.798Z,1009.51
2018-01-24T12:04:41.794Z,1009.54